Terminal Aerodrome Forecast
Issued by NWS

Current Version | Previous Version | Text Only | Print | Product List | Glossary On
Versions: 1 2 3 4 5 6 7 8 9 10 11 12 13
000
FTUS45 KABQ 300500
TAFAEG
TAF
KAEG 300540Z 3006/3106 11014G21KT P6SM VCSH SCT029 BKN040
      TEMPO 3007/3010 5SM -RASN BR SCT019 BKN029
     FM301000 11011KT 3SM -RASN BR SCT019 BKN029
     FM301600 11009KT 3SM -RASN BR SCT009 BKN019=

USA.gov is the U.S. government's official web portal to all federal, state and local government web resources and services.